Time;durP1;ratioP1;P1;durP2;ratioP2;P2;SDS_P1;SDS_P2;PMS_P1;PMS_P2;Temp;Humidity;BMP_temperature;BMP_pressure;BME280_temperature;BME280_humidity;BME280_pressure;Samples;Min_cycle;Max_cycle;Signal;HPM_P1;HPM_P2
2022/02/15 00:01:05;;;;;;;7.60;4.05;;;10.30;99.90;;;;;;4970986;28;20046;-53
2022/02/15 00:03:33;;;;;;;7.30;3.55;;;10.30;99.90;;;;;;4971610;28;20117;-57
2022/02/15 00:06:01;;;;;;;6.78;3.55;;;10.30;99.90;;;;;;4967934;28;20055;-55
2022/02/15 00:08:28;;;;;;;7.15;3.92;;;10.30;99.90;;;;;;4966247;28;20129;-51
2022/02/15 00:10:56;;;;;;;5.30;3.40;;;10.30;99.90;;;;;;4963737;28;20133;-49
2022/02/15 00:13:23;;;;;;;6.82;3.80;;;10.40;99.90;;;;;;4971633;28;20039;-51
2022/02/15 00:15:51;;;;;;;4.88;3.28;;;10.40;99.90;;;;;;4972645;28;20073;-51
2022/02/15 00:18:20;;;;;;;4.93;3.72;;;10.40;99.90;;;;;;4970244;28;20047;-55
2022/02/15 00:20:48;;;;;;;6.55;2.97;;;10.40;99.90;;;;;;4971942;28;20053;-50
2022/02/15 00:23:16;;;;;;;8.77;4.03;;;10.40;99.90;;;;;;4956713;28;20047;-56
2022/02/15 00:25:43;;;;;;;5.30;4.18;;;10.40;99.90;;;;;;4972786;28;20421;-54
2022/02/15 00:28:11;;;;;;;10.55;4.00;;;10.40;99.90;;;;;;4973041;28;20038;-55
2022/02/15 00:30:39;;;;;;;6.90;4.10;;;10.50;99.90;;;;;;4968672;28;20107;-56
2022/02/15 00:33:06;;;;;;;4.72;3.80;;;10.50;99.90;;;;;;4977640;28;20047;-55
2022/02/15 00:35:35;;;;;;;5.47;4.00;;;10.50;99.90;;;;;;4972580;28;20030;-56
2022/02/15 00:38:03;;;;;;;6.65;3.60;;;10.50;99.90;;;;;;4988202;28;20054;-52
2022/02/15 00:40:31;;;;;;;7.05;3.65;;;10.50;99.90;;;;;;4972510;28;20042;-54
2022/02/15 00:43:00;;;;;;;5.30;4.10;;;10.50;99.90;;;;;;4971278;28;20050;-55
2022/02/15 00:45:28;;;;;;;6.13;4.00;;;10.50;99.90;;;;;;4972138;28;20442;-58
2022/02/15 00:47:56;;;;;;;6.03;4.22;;;10.50;99.90;;;;;;4968737;28;20078;-57
2022/02/15 00:50:24;;;;;;;6.13;3.95;;;10.40;99.90;;;;;;4966512;28;20114;-55
2022/02/15 00:52:51;;;;;;;6.45;4.10;;;10.40;99.90;;;;;;4963560;28;20417;-53
2022/02/15 00:55:19;;;;;;;5.28;3.50;;;10.40;99.90;;;;;;4968625;28;21492;-51
2022/02/15 00:57:46;;;;;;;6.55;3.38;;;10.40;99.90;;;;;;4962311;28;20509;-56
2022/02/15 01:00:14;;;;;;;10.25;3.88;;;10.40;99.90;;;;;;4971864;28;20042;-55
2022/02/15 01:02:44;;;;;;;5.35;3.50;;;10.50;99.90;;;;;;4971215;28;20519;-54
2022/02/15 01:05:12;;;;;;;8.23;3.85;;;10.40;99.90;;;;;;4959592;28;20062;-54
2022/02/15 01:07:40;;;;;;;5.63;3.67;;;10.40;99.90;;;;;;4971588;28;20062;-55
2022/02/15 01:10:10;;;;;;;15.88;5.55;;;10.40;99.90;;;;;;4971224;28;20402;-54
2022/02/15 01:12:38;;;;;;;4.97;3.83;;;10.40;99.90;;;;;;4967984;28;20039;-57
2022/02/15 01:15:06;;;;;;;5.65;3.50;;;10.30;99.90;;;;;;4986949;28;20139;-54
2022/02/15 01:17:34;;;;;;;5.88;3.67;;;10.30;99.90;;;;;;4960718;28;20130;-52
2022/02/15 01:20:02;;;;;;;5.90;3.47;;;10.30;99.90;;;;;;4971377;28;20047;-51
2022/02/15 01:22:30;;;;;;;4.60;3.20;;;10.30;99.90;;;;;;4971972;28;20070;-54
2022/02/15 01:24:57;;;;;;;8.38;3.40;;;10.30;99.90;;;;;;4973174;28;20042;-49
2022/02/15 01:27:25;;;;;;;8.45;3.75;;;10.30;99.90;;;;;;4979325;28;20047;-49
2022/02/15 01:29:55;;;;;;;7.78;4.43;;;10.30;99.90;;;;;;4955747;28;20060;-50
2022/02/15 01:32:23;;;;;;;6.97;3.55;;;10.30;99.90;;;;;;4968542;28;20050;-55
2022/02/15 01:34:50;;;;;;;6.40;3.45;;;10.30;99.90;;;;;;4971916;28;20039;-52
2022/02/15 01:37:18;;;;;;;6.13;3.42;;;10.30;99.90;;;;;;4967928;28;20129;-56
2022/02/15 01:39:45;;;;;;;5.32;3.17;;;10.20;99.90;;;;;;4963351;28;20046;-54
2022/02/15 01:42:17;;;;;;;7.10;3.97;;;10.30;99.90;;;;;;4958799;28;20112;-54
2022/02/15 01:44:45;;;;;;;5.32;3.58;;;10.30;99.90;;;;;;4971078;28;20142;-53
2022/02/15 01:47:25;;;;;;;4.38;2.90;;;10.30;99.90;;;;;;4969982;28;20054;-52
2022/02/15 01:49:53;;;;;;;6.28;3.53;;;10.30;99.90;;;;;;4986632;28;20050;-55
2022/02/15 01:52:22;;;;;;;6.90;3.30;;;10.20;99.90;;;;;;4970509;28;20046;-54
2022/02/15 01:54:52;;;;;;;4.63;3.03;;;10.20;99.90;;;;;;4967845;28;20047;-54
2022/02/15 01:57:21;;;;;;;6.50;4.18;;;10.20;99.90;;;;;;4970134;28;20451;-53
2022/02/15 01:59:56;;;;;;;6.53;3.47;;;10.20;99.90;;;;;;4971049;28;20047;-56
2022/02/15 02:02:29;;;;;;;6.55;3.47;;;10.20;99.90;;;;;;4954066;28;20039;-54
2022/02/15 02:07:47;;;;;;;5.85;3.67;;;10.20;99.90;;;;;;4964094;28;20058;-54
2022/02/15 02:10:15;;;;;;;8.38;4.05;;;10.20;99.90;;;;;;4970853;28;20061;-54
2022/02/15 02:12:43;;;;;;;7.50;4.10;;;10.10;99.90;;;;;;4950211;28;20401;-54
2022/02/15 02:15:22;;;;;;;3.95;2.55;;;10.10;99.90;;;;;;4971152;28;20049;-54
2022/02/15 02:18:13;;;;;;;7.55;2.90;;;10.10;99.90;;;;;;4958527;28;20082;-53
2022/02/15 02:20:44;;;;;;;4.25;3.15;;;10.10;99.90;;;;;;4966172;28;20086;-54
2022/02/15 02:23:18;;;;;;;4.88;2.45;;;10.10;99.90;;;;;;4968835;28;20047;-53
2022/02/15 02:25:47;;;;;;;4.15;2.45;;;10.20;99.90;;;;;;4973948;28;20039;-54
2022/02/15 02:28:18;;;;;;;5.22;2.67;;;10.20;99.90;;;;;;4975204;28;20124;-50
2022/02/15 02:30:46;;;;;;;3.60;2.17;;;10.20;99.90;;;;;;4957814;28;20098;-53
2022/02/15 02:33:14;;;;;;;5.45;2.40;;;10.30;99.90;;;;;;4957638;28;20039;-52
2022/02/15 02:35:42;;;;;;;4.57;2.38;;;10.20;99.90;;;;;;4973308;28;20117;-52
2022/02/15 02:38:09;;;;;;;4.88;2.50;;;10.20;99.90;;;;;;4974658;28;20493;-53
2022/02/15 02:40:37;;;;;;;7.10;2.92;;;10.20;99.90;;;;;;4974426;28;20525;-50
2022/02/15 02:43:05;;;;;;;5.18;2.40;;;10.20;99.90;;;;;;4975047;28;20429;-49
2022/02/15 02:45:33;;;;;;;3.08;2.15;;;10.20;99.90;;;;;;4974362;28;20056;-51
2022/02/15 02:48:02;;;;;;;4.03;2.70;;;10.10;99.90;;;;;;4958573;28;20047;-54
2022/02/15 02:50:31;;;;;;;7.93;2.72;;;10.10;99.90;;;;;;4974381;28;20039;-50
2022/02/15 02:53:01;;;;;;;4.40;2.65;;;10.00;99.90;;;;;;4967739;28;20422;-51
2022/02/15 02:55:34;;;;;;;5.40;2.90;;;10.00;99.90;;;;;;4974021;28;20046;-53
2022/02/15 02:58:03;;;;;;;2.67;2.03;;;9.90;99.90;;;;;;4959939;28;20506;-51
2022/02/15 03:00:31;;;;;;;4.07;2.47;;;9.90;99.90;;;;;;4970626;28;20453;-54
2022/02/15 03:03:22;;;;;;;3.13;2.00;;;9.80;99.90;;;;;;4974349;28;20521;-52
2022/02/15 03:05:52;;;;;;;7.28;3.42;;;9.90;99.90;;;;;;4975586;28;20138;-51
2022/02/15 03:08:20;;;;;;;4.72;2.67;;;9.80;99.90;;;;;;4992227;28;20405;-50
2022/02/15 03:10:49;;;;;;;3.88;2.75;;;9.90;99.90;;;;;;4976214;28;20129;-50
2022/02/15 03:13:32;;;;;;;5.05;2.30;;;9.90;99.90;;;;;;4975783;28;20058;-52
2022/02/15 03:16:01;;;;;;;4.65;2.53;;;9.80;99.90;;;;;;4976011;28;20502;-51
2022/02/15 03:18:29;;;;;;;7.68;2.85;;;9.80;99.90;;;;;;4975740;28;20046;-54
2022/02/15 03:21:03;;;;;;;6.68;2.80;;;9.80;99.90;;;;;;4975866;28;20038;-54
2022/02/15 03:23:30;;;;;;;4.40;2.58;;;9.80;99.90;;;;;;4958968;28;20039;-52
2022/02/15 03:26:00;;;;;;;5.38;2.67;;;9.70;99.90;;;;;;4975120;28;20516;-49
2022/02/15 03:28:30;;;;;;;4.57;2.65;;;9.80;99.90;;;;;;4960047;28;20441;-49
2022/02/15 03:30:58;;;;;;;5.70;2.88;;;9.80;99.90;;;;;;4975438;28;20049;-52
2022/02/15 03:33:27;;;;;;;4.70;2.88;;;9.90;99.90;;;;;;4974639;28;20050;-55
2022/02/15 03:35:55;;;;;;;5.55;2.53;;;9.90;99.90;;;;;;4975689;28;20053;-49
2022/02/15 03:38:23;;;;;;;5.63;2.55;;;9.90;99.90;;;;;;4975620;28;20039;-50
2022/02/15 03:43:48;;;;;;;;;;;9.90;99.90;;;;;;4976200;28;20122;-52
2022/02/15 03:46:22;;;;;;;4.63;2.50;;;9.90;99.90;;;;;;4959523;28;19922;-51
2022/02/15 03:48:51;;;;;;;6.97;2.97;;;9.80;99.90;;;;;;4975650;28;20401;-51
2022/02/15 03:51:20;;;;;;;7.18;2.40;;;9.90;99.90;;;;;;4975041;28;20082;-50
2022/02/15 03:53:54;;;;;;;4.43;2.38;;;9.90;99.90;;;;;;4975373;28;20049;-50
2022/02/15 03:56:21;;;;;;;4.63;2.72;;;9.90;99.90;;;;;;4975080;28;20043;-50
2022/02/15 03:58:50;;;;;;;4.57;1.95;;;9.80;99.90;;;;;;4975315;28;20058;-50
2022/02/15 04:01:19;;;;;;;4.82;2.80;;;9.70;99.90;;;;;;4975016;28;20528;-50
2022/02/15 04:03:48;;;;;;;3.13;2.33;;;9.70;99.90;;;;;;4975173;28;20524;-49
2022/02/15 04:06:16;;;;;;;5.93;2.50;;;9.70;99.90;;;;;;4974925;28;20055;-50
2022/02/15 04:08:46;;;;;;;3.42;2.00;;;9.70;99.90;;;;;;4975063;28;20071;-50
2022/02/15 04:11:14;;;;;;;4.07;2.80;;;9.80;99.90;;;;;;4974684;28;20045;-50
2022/02/15 04:13:42;;;;;;;4.35;2.50;;;9.80;99.90;;;;;;4974825;28;20051;-50
2022/02/15 04:16:10;;;;;;;3.00;1.80;;;9.80;99.90;;;;;;4974684;28;20042;-50
2022/02/15 04:18:46;;;;;;;4.03;2.33;;;9.70;99.90;;;;;;4974632;28;20043;-51
2022/02/15 04:21:20;;;;;;;4.88;3.00;;;9.70;99.90;;;;;;4974676;28;20051;-50
2022/02/15 04:23:48;;;;;;;3.70;2.75;;;9.70;99.90;;;;;;4974750;28;20043;-52
2022/02/15 04:26:17;;;;;;;3.15;2.38;;;9.60;99.90;;;;;;4974516;28;20039;-50
2022/02/15 04:28:46;;;;;;;8.70;2.55;;;9.60;99.90;;;;;;4974438;28;20564;-51
2022/02/15 04:31:36;;;;;;;4.45;2.33;;;9.60;99.90;;;;;;4975342;28;20050;-50
2022/02/15 04:34:04;;;;;;;6.78;2.67;;;9.60;99.90;;;;;;4974282;28;20049;-49
2022/02/15 04:36:32;;;;;;;6.30;2.55;;;9.60;99.90;;;;;;4974289;28;20039;-50
2022/02/15 04:39:01;;;;;;;3.25;2.35;;;9.60;99.90;;;;;;4974333;28;20137;-54
2022/02/15 04:41:32;;;;;;;4.13;2.40;;;9.60;99.90;;;;;;4958932;28;20476;-53
2022/02/15 04:44:06;;;;;;;3.78;2.38;;;9.50;99.90;;;;;;4974203;28;20039;-53
2022/02/15 04:46:34;;;;;;;4.82;2.17;;;9.60;99.90;;;;;;4974116;28;20078;-53
2022/02/15 04:49:02;;;;;;;5.30;2.67;;;9.50;99.90;;;;;;4974245;28;20402;-50
2022/02/15 04:51:32;;;;;;;6.60;2.50;;;9.50;99.90;;;;;;4973982;28;20045;-51
2022/02/15 04:54:00;;;;;;;4.13;2.63;;;9.60;99.90;;;;;;4973864;28;20070;-52
2022/02/15 04:56:27;;;;;;;5.78;2.65;;;9.60;99.90;;;;;;4973967;28;20057;-52
2022/02/15 04:58:55;;;;;;;4.07;2.83;;;9.50;99.90;;;;;;4973968;28;20465;-55
2022/02/15 05:01:23;;;;;;;5.10;2.70;;;9.50;99.90;;;;;;4973779;28;20389;-49
2022/02/15 05:03:56;;;;;;;4.53;2.65;;;9.50;99.90;;;;;;4973952;28;20142;-51
2022/02/15 05:06:24;;;;;;;5.65;2.60;;;9.50;99.90;;;;;;4973959;28;20499;-50
2022/02/15 05:08:51;;;;;;;4.80;3.00;;;9.50;99.90;;;;;;4990383;28;20058;-49
2022/02/15 05:11:19;;;;;;;4.57;2.83;;;9.50;99.90;;;;;;4973749;28;20054;-49
2022/02/15 05:13:54;;;;;;;5.78;3.40;;;9.50;99.90;;;;;;4958777;28;20047;-52
2022/02/15 05:16:28;;;;;;;3.70;2.85;;;9.50;99.90;;;;;;4958872;28;20401;-51
2022/02/15 05:19:03;;;;;;;3.70;2.37;;;9.50;99.90;;;;;;4958997;28;20038;-50
2022/02/15 05:21:33;;;;;;;4.05;2.40;;;9.50;99.90;;;;;;4973966;28;20321;-51
2022/02/15 05:24:01;;;;;;;3.63;2.40;;;9.60;99.90;;;;;;4973762;28;20051;-53
2022/02/15 05:26:45;;;;;;;3.65;2.33;;;9.60;99.90;;;;;;4973655;28;20389;-50
2022/02/15 05:29:27;;;;;;;6.05;3.88;;;9.60;99.90;;;;;;4974992;28;20043;-52
2022/02/15 05:32:03;;;;;;;3.22;2.20;;;9.70;99.90;;;;;;4973740;28;20397;-50
2022/02/15 05:34:31;;;;;;;4.38;2.78;;;9.80;99.90;;;;;;4974704;28;20535;-50
2022/02/15 05:37:00;;;;;;;4.03;2.33;;;9.80;99.90;;;;;;4974698;28;20382;-51
2022/02/15 05:39:28;;;;;;;6.60;2.90;;;9.80;99.90;;;;;;4973494;28;20159;-52
2022/02/15 05:42:03;;;;;;;3.42;2.10;;;9.80;99.90;;;;;;4973829;28;20552;-50
2022/02/15 05:44:31;;;;;;;4.03;2.47;;;9.90;99.90;;;;;;4973527;28;20478;-50
2022/02/15 05:47:04;;;;;;;4.32;3.30;;;9.90;99.90;;;;;;4973851;28;20043;-49
2022/02/15 05:50:49;;;;;;;3.90;3.05;;;10.00;99.90;;;;;;4974555;28;20386;-49
2022/02/15 05:52:24;;;;;;;5.05;2.63;;;10.00;99.90;;;;;;4973624;28;20047;-54
2022/02/15 05:54:52;;;;;;;3.50;2.10;;;10.00;99.90;;;;;;4973512;28;20550;-50
2022/02/15 05:57:21;;;;;;;5.65;2.88;;;10.00;99.90;;;;;;4976594;28;20049;-49
2022/02/15 05:59:52;;;;;;;3.67;2.50;;;10.10;99.90;;;;;;4977252;28;20082;-48
2022/02/15 06:02:38;;;;;;;5.72;2.38;;;10.10;99.90;;;;;;4978585;28;20075;-52
2022/02/15 06:05:09;;;;;;;4.70;3.30;;;10.10;99.90;;;;;;4976903;28;20046;-51
2022/02/15 06:07:40;;;;;;;4.85;2.33;;;10.20;99.90;;;;;;4977013;28;20046;-48
2022/02/15 06:10:28;;;;;;;5.47;2.28;;;10.20;99.90;;;;;;4977798;28;20047;-49
2022/02/15 06:13:07;;;;;;;4.38;2.13;;;10.20;99.90;;;;;;4976999;28;20133;-52
2022/02/15 06:15:34;;;;;;;3.55;2.35;;;10.20;99.90;;;;;;4978152;28;20069;-51
2022/02/15 06:18:10;;;;;;;6.82;2.50;;;10.20;99.90;;;;;;4976978;28;20055;-51
2022/02/15 06:20:44;;;;;;;5.15;2.75;;;10.20;99.90;;;;;;4976837;28;20525;-49
2022/02/15 06:23:15;;;;;;;3.53;2.83;;;10.30;99.90;;;;;;4976806;28;20042;-51
2022/02/15 06:25:44;;;;;;;4.00;2.67;;;10.30;99.90;;;;;;4976843;28;20050;-51
2022/02/15 06:28:13;;;;;;;4.53;2.53;;;10.30;99.90;;;;;;4976988;28;20051;-49
2022/02/15 06:30:46;;;;;;;6.68;2.55;;;10.40;99.90;;;;;;4961727;28;20078;-51
2022/02/15 06:33:21;;;;;;;7.35;2.70;;;10.40;99.90;;;;;;4976722;28;20046;-50
2022/02/15 06:35:50;;;;;;;4.88;2.65;;;10.40;99.90;;;;;;4976437;28;20101;-54
2022/02/15 06:38:20;;;;;;;4.00;2.55;;;10.40;99.90;;;;;;4976601;28;20043;-51
2022/02/15 06:41:02;;;;;;;3.40;2.60;;;10.40;99.90;;;;;;4976510;28;20138;-50
2022/02/15 06:43:43;;;;;;;4.82;2.80;;;10.50;99.90;;;;;;4976510;28;20505;-53
2022/02/15 06:46:12;;;;;;;3.92;2.85;;;10.80;99.90;;;;;;4976284;28;20093;-51
2022/02/15 06:48:40;;;;;;;7.53;4.88;;;11.00;99.90;;;;;;4976488;28;20082;-51
2022/02/15 06:51:09;;;;;;;10.23;4.72;;;11.20;99.90;;;;;;4976190;28;20043;-52
2022/02/15 06:53:52;;;;;;;11.32;8.05;;;11.50;99.90;;;;;;4976278;28;20054;-50
2022/02/15 06:56:41;;;;;;;8.38;4.88;;;11.50;99.90;;;;;;4977220;28;20458;-52
2022/02/15 06:59:10;;;;;;;5.97;3.25;;;11.60;99.90;;;;;;4976445;28;20042;-49
2022/02/15 07:01:40;;;;;;;6.82;5.88;;;11.60;99.90;;;;;;4976078;28;20066;-53
2022/02/15 07:04:12;;;;;;;14.02;8.70;;;11.50;99.90;;;;;;4976339;28;20101;-47
2022/02/15 07:06:41;;;;;;;19.33;12.30;;;11.30;99.90;;;;;;4959851;28;20532;-51
2022/02/15 07:09:08;;;;;;;7.35;5.43;;;11.20;99.90;;;;;;4975017;28;20039;-50
2022/02/15 07:11:59;;;;;;;5.43;3.20;;;11.20;99.90;;;;;;4971869;28;20130;-50
2022/02/15 07:14:29;;;;;;;9.73;2.85;;;11.20;99.90;;;;;;4975898;28;20047;-51
2022/02/15 07:17:00;;;;;;;5.72;3.25;;;11.20;99.90;;;;;;4976111;28;20113;-49
2022/02/15 07:19:32;;;;;;;4.82;2.80;;;11.30;99.90;;;;;;4977024;28;20093;-50
2022/02/15 07:22:17;;;;;;;4.47;2.47;;;11.30;99.90;;;;;;4976968;28;20083;-55
2022/02/15 07:25:04;;;;;;;5.70;3.00;;;11.40;99.90;;;;;;4976893;28;20043;-54
2022/02/15 07:27:40;;;;;;;4.53;2.97;;;11.50;99.90;;;;;;4975713;28;20101;-53
2022/02/15 07:30:12;;;;;;;6.90;3.63;;;11.50;99.90;;;;;;4975738;28;20046;-55
2022/02/15 07:33:03;;;;;;;13.60;8.68;;;11.50;99.90;;;;;;4973788;28;20484;-52
2022/02/15 07:35:36;;;;;;;10.93;5.47;;;11.50;99.90;;;;;;4975491;28;20042;-53
2022/02/15 07:38:04;;;;;;;8.43;5.25;;;11.60;99.90;;;;;;4976636;28;20045;-53
2022/02/15 07:40:32;;;;;;;7.38;3.42;;;11.80;99.90;;;;;;4976479;28;20049;-55
2022/02/15 07:43:00;;;;;;;10.82;7.32;;;12.20;99.90;;;;;;4976406;28;20064;-48
2022/02/15 07:45:48;;;;;;;11.63;6.38;;;12.40;99.90;;;;;;4975325;28;20042;-51
2022/02/15 07:48:15;;;;;;;7.50;4.93;;;12.60;99.90;;;;;;4976427;28;20113;-50
2022/02/15 07:50:44;;;;;;;10.15;5.80;;;12.60;99.90;;;;;;4976362;28;20043;-52
2022/02/15 07:53:13;;;;;;;10.20;4.97;;;12.60;99.90;;;;;;4976208;28;20130;-53
2022/02/15 07:55:41;;;;;;;7.70;5.15;;;12.70;99.90;;;;;;4976638;28;20046;-52
2022/02/15 07:58:11;;;;;;;15.98;7.25;;;13.00;99.90;;;;;;4976369;28;20445;-51
2022/02/15 08:00:38;;;;;;;7.63;5.45;;;13.20;99.90;;;;;;4976314;28;20077;-52
2022/02/15 08:03:06;;;;;;;7.82;3.58;;;13.20;99.90;;;;;;4976125;28;20070;-52
2022/02/15 08:05:38;;;;;;;5.32;4.00;;;13.10;99.90;;;;;;4975218;28;20142;-52
2022/02/15 08:08:11;;;;;;;8.38;5.45;;;13.00;99.90;;;;;;4975180;28;20118;-53
2022/02/15 08:10:39;;;;;;;7.95;4.65;;;12.90;99.90;;;;;;4975905;28;20046;-60
2022/02/15 08:13:08;;;;;;;10.48;5.50;;;12.90;99.90;;;;;;4976146;28;20054;-60
2022/02/15 08:15:40;;;;;;;8.98;4.93;;;12.90;99.90;;;;;;4975879;28;20039;-60
2022/02/15 08:18:07;;;;;;;8.48;3.90;;;13.10;99.90;;;;;;4975835;28;20109;-60
2022/02/15 08:20:36;;;;;;;6.82;3.25;;;13.20;99.90;;;;;;4975566;28;20620;-60
2022/02/15 08:23:04;;;;;;;7.22;3.67;;;13.20;99.90;;;;;;4976210;28;20078;-60
2022/02/15 08:25:34;;;;;;;6.18;3.97;;;13.20;99.90;;;;;;4975865;28;20046;-60
2022/02/15 08:28:01;;;;;;;7.97;3.72;;;13.30;99.90;;;;;;4975794;28;20119;-58
2022/02/15 08:30:30;;;;;;;11.25;4.15;;;13.30;99.90;;;;;;4974648;28;20454;-58
2022/02/15 08:32:58;;;;;;;7.97;3.47;;;13.30;99.90;;;;;;4975498;28;20047;-59
2022/02/15 08:35:26;;;;;;;8.80;4.57;;;13.50;99.90;;;;;;4975691;28;20042;-59
2022/02/15 08:37:54;;;;;;;6.40;3.30;;;13.80;99.90;;;;;;4958690;28;20572;-59
2022/02/15 08:40:23;;;;;;;8.65;3.15;;;14.20;99.90;;;;;;4958544;28;20054;-59
2022/02/15 08:42:51;;;;;;;7.43;3.65;;;14.40;99.90;;;;;;4974493;28;20058;-59
2022/02/15 08:45:18;;;;;;;6.88;2.80;;;14.30;99.90;;;;;;4974421;28;20130;-58
2022/02/15 08:47:46;;;;;;;4.65;2.67;;;14.10;99.90;;;;;;4975487;28;20133;-59
2022/02/15 08:50:15;;;;;;;4.32;2.55;;;14.10;99.90;;;;;;4975449;28;20238;-59
2022/02/15 08:52:44;;;;;;;6.20;3.50;;;14.10;99.90;;;;;;4975335;28;20039;-58
2022/02/15 08:55:12;;;;;;;4.95;3.17;;;14.30;99.90;;;;;;4975196;28;20547;-58
2022/02/15 08:57:40;;;;;;;7.60;3.08;;;14.20;99.90;;;;;;4958391;28;20124;-60
2022/02/15 09:00:10;;;;;;;6.90;2.60;;;14.30;99.90;;;;;;4975109;28;20086;-59
2022/02/15 09:02:38;;;;;;;6.93;2.88;;;14.40;99.90;;;;;;4974136;28;20039;-59
2022/02/15 09:05:07;;;;;;;5.20;3.95;;;14.40;99.90;;;;;;4974824;28;20173;-59
2022/02/15 09:07:35;;;;;;;7.45;2.28;;;14.60;99.90;;;;;;4975299;28;20070;-59
2022/02/15 09:10:04;;;;;;;5.10;2.25;;;14.60;99.90;;;;;;4975106;28;20101;-59
2022/02/15 09:12:32;;;;;;;3.28;2.08;;;14.50;99.90;;;;;;4974934;28;20133;-59
2022/02/15 09:15:00;;;;;;;5.50;2.42;;;14.40;99.90;;;;;;4973661;28;20051;-59
2022/02/15 09:17:27;;;;;;;8.90;2.42;;;14.40;99.90;;;;;;4973918;28;20097;-59
2022/02/15 09:19:55;;;;;;;6.38;2.60;;;14.30;99.90;;;;;;4973695;28;20051;-59
2022/02/15 09:22:22;;;;;;;4.82;2.42;;;14.10;99.90;;;;;;4973806;28;20051;-59
2022/02/15 09:24:51;;;;;;;9.23;3.20;;;14.10;99.90;;;;;;4973397;28;20039;-60
2022/02/15 09:27:19;;;;;;;3.60;2.28;;;14.00;99.90;;;;;;4973763;28;20134;-60
2022/02/15 09:29:47;;;;;;;9.07;3.15;;;13.90;99.90;;;;;;4973711;28;20043;-60
2022/02/15 09:32:15;;;;;;;4.95;2.90;;;13.80;99.90;;;;;;4973255;28;20045;-60
2022/02/15 09:34:43;;;;;;;7.43;2.85;;;13.80;99.90;;;;;;4957713;28;20461;-59
2022/02/15 09:37:12;;;;;;;5.72;2.95;;;13.90;99.90;;;;;;4973680;28;20055;-58
2022/02/15 09:39:39;;;;;;;7.63;2.42;;;14.00;99.90;;;;;;4973407;28;20502;-58
2022/02/15 09:42:08;;;;;;;7.18;2.63;;;14.10;99.90;;;;;;4973425;28;20051;-59
2022/02/15 09:44:36;;;;;;;4.53;2.92;;;14.10;99.90;;;;;;4974762;28;20129;-58
2022/02/15 09:47:05;;;;;;;8.20;3.05;;;14.20;99.90;;;;;;4973405;28;20050;-58
2022/02/15 09:49:50;;;;;;;5.72;2.63;;;14.20;99.90;;;;;;4957460;28;20047;-58
2022/02/15 09:52:22;;;;;;;3.58;1.30;;;14.40;99.90;;;;;;4974682;28;20043;-59
2022/02/15 09:54:52;;;;;;;4.05;1.58;;;14.70;99.90;;;;;;4974636;28;20046;-58
2022/02/15 09:57:21;;;;;;;3.60;1.50;;;15.20;99.90;;;;;;4973554;28;20564;-58
2022/02/15 09:59:50;;;;;;;4.35;2.03;;;15.50;99.90;;;;;;4973594;28;20114;-59
2022/02/15 10:02:27;;;;;;;2.70;1.65;;;15.60;99.90;;;;;;4973439;28;20094;-58
2022/02/15 10:04:56;;;;;;;4.55;1.60;;;15.60;99.90;;;;;;4974266;28;20133;-57
2022/02/15 10:07:25;;;;;;;3.20;1.95;;;15.50;99.90;;;;;;4973243;28;20051;-59
2022/02/15 10:09:59;;;;;;;7.53;2.05;;;15.70;99.90;;;;;;4974576;28;20051;-59
2022/02/15 10:12:28;;;;;;;6.50;2.63;;;15.90;99.90;;;;;;4970435;28;20054;-60
2022/02/15 10:14:56;;;;;;;2.50;1.45;;;16.00;99.90;;;;;;4972945;28;20039;-60
2022/02/15 10:17:24;;;;;;;4.72;1.75;;;15.80;99.90;;;;;;4971305;28;20039;-59
2022/02/15 10:19:54;;;;;;;8.65;3.40;;;15.60;99.90;;;;;;4970816;28;20051;-59
2022/02/15 10:22:23;;;;;;;2.90;1.95;;;15.50;99.90;;;;;;4971711;28;20039;-60
2022/02/15 10:24:54;;;;;;;3.65;2.08;;;15.60;99.90;;;;;;4972361;28;20043;-60
2022/02/15 10:27:31;;;;;;;5.55;2.10;;;15.80;99.90;;;;;;4971105;28;20047;-60
2022/02/15 10:30:01;;;;;;;3.13;1.52;;;16.00;99.90;;;;;;4964579;28;20050;-60
2022/02/15 10:32:29;;;;;;;5.63;2.65;;;16.00;99.90;;;;;;4947198;29;20062;-59
2022/02/15 10:34:59;;;;;;;2.40;1.55;;;15.70;99.90;;;;;;4948935;28;20039;-60
2022/02/15 10:37:32;;;;;;;5.13;2.33;;;15.70;99.90;;;;;;4971430;28;20405;-60
2022/02/15 10:40:06;;;;;;;4.72;2.10;;;15.60;99.90;;;;;;4970758;28;20094;-61
2022/02/15 10:42:37;;;;;;;4.53;1.90;;;15.80;99.90;;;;;;4972066;28;20101;-60
2022/02/15 10:45:10;;;;;;;6.18;1.92;;;16.10;99.90;;;;;;4974955;28;20054;-60
2022/02/15 10:47:44;;;;;;;9.57;4.20;;;16.10;99.90;;;;;;4974610;28;20449;-63
2022/02/15 10:50:14;;;;;;;8.13;3.13;;;16.20;99.90;;;;;;4975301;28;20378;-59
2022/02/15 10:52:42;;;;;;;5.18;2.78;;;16.20;99.90;;;;;;4963144;28;20054;-60
2022/02/15 10:55:13;;;;;;;11.85;3.03;;;16.20;99.90;;;;;;4975486;28;20089;-59
2022/02/15 10:57:41;;;;;;;4.03;1.80;;;16.40;99.90;;;;;;4975314;28;20054;-59
2022/02/15 11:00:11;;;;;;;6.80;2.10;;;16.30;99.90;;;;;;4973906;28;20069;-59
2022/02/15 11:02:40;;;;;;;2.50;1.60;;;16.30;99.90;;;;;;4975331;28;20047;-59
2022/02/15 11:05:11;;;;;;;6.95;2.00;;;16.30;99.90;;;;;;4974698;28;20046;-59
2022/02/15 11:07:40;;;;;;;6.82;2.45;;;16.20;99.90;;;;;;4973886;28;20043;-59
2022/02/15 11:10:10;;;;;;;3.95;1.83;;;16.30;99.90;;;;;;4974448;28;20047;-59
2022/02/15 11:12:44;;;;;;;8.55;1.90;;;16.40;99.90;;;;;;4974551;28;20568;-58
2022/02/15 11:15:18;;;;;;;3.65;2.45;;;16.30;99.90;;;;;;4974546;28;20059;-60
2022/02/15 11:17:50;;;;;;;3.35;1.70;;;16.20;99.90;;;;;;4975149;28;20038;-61
2022/02/15 11:20:20;;;;;;;5.85;1.52;;;16.10;99.90;;;;;;4966516;28;20046;-60
2022/02/15 11:22:52;;;;;;;2.10;1.50;;;16.20;99.90;;;;;;4973017;28;20053;-60
2022/02/15 11:25:33;;;;;;;3.15;1.83;;;16.10;99.90;;;;;;4971351;28;20039;-60
2022/02/15 11:28:12;;;;;;;3.05;2.13;;;16.10;99.90;;;;;;4974066;28;20057;-60
2022/02/15 11:30:56;;;;;;;5.82;2.58;;;16.20;99.80;;;;;;4973624;28;20034;-60
2022/02/15 11:33:27;;;;;;;4.00;2.05;;;16.20;99.90;;;;;;4975623;28;20050;-60
2022/02/15 11:35:56;;;;;;;7.80;2.83;;;16.20;99.90;;;;;;4976912;28;20066;-60
2022/02/15 11:38:25;;;;;;;7.43;2.63;;;16.00;99.90;;;;;;4976693;28;20522;-60
2022/02/15 11:41:04;;;;;;;5.13;2.47;;;16.20;99.90;;;;;;4975626;28;20145;-60
2022/02/15 11:43:33;;;;;;;5.15;2.00;;;16.20;99.90;;;;;;4975571;28;20047;-60
2022/02/15 11:46:02;;;;;;;13.35;4.90;;;16.10;99.90;;;;;;4976440;28;20047;-60
2022/02/15 11:48:41;;;;;;;5.50;2.67;;;16.00;99.90;;;;;;4976600;28;20512;-60
2022/02/15 11:51:18;;;;;;;7.03;2.47;;;15.90;99.90;;;;;;4976645;28;20050;-61
2022/02/15 11:53:48;;;;;;;4.07;2.05;;;16.10;99.90;;;;;;4958786;28;20043;-60
2022/02/15 11:56:17;;;;;;;4.35;1.85;;;16.00;99.90;;;;;;4975355;28;20039;-62
2022/02/15 11:58:51;;;;;;;5.70;2.35;;;15.90;99.90;;;;;;4972974;28;20120;-60
2022/02/15 12:01:30;;;;;;;3.60;1.92;;;15.60;99.90;;;;;;4973596;28;20035;-60
2022/02/15 12:04:00;;;;;;;3.47;2.33;;;15.50;99.90;;;;;;4969391;28;20055;-59
2022/02/15 12:06:39;;;;;;;12.55;2.95;;;15.40;99.90;;;;;;4972234;28;20055;-60
2022/02/15 12:09:07;;;;;;;5.82;2.72;;;15.40;99.90;;;;;;4964527;28;20042;-60
2022/02/15 12:11:42;;;;;;;8.65;2.80;;;15.40;99.90;;;;;;4971069;28;20054;-59
2022/02/15 12:14:24;;;;;;;4.22;2.47;;;15.30;99.90;;;;;;4973288;28;20174;-60
2022/02/15 12:16:58;;;;;;;3.42;1.90;;;15.20;99.90;;;;;;4972465;28;20459;-60
2022/02/15 12:19:28;;;;;;;7.38;3.38;;;15.10;99.90;;;;;;4972761;28;20119;-60
2022/02/15 12:22:14;;;;;;;5.03;2.30;;;15.10;99.90;;;;;;4973027;28;20768;-60
2022/02/15 12:24:53;;;;;;;6.70;2.38;;;15.00;99.90;;;;;;4971732;28;20129;-60
2022/02/15 12:27:25;;;;;;;4.30;2.67;;;15.00;99.90;;;;;;4974726;28;20043;-59
2022/02/15 12:29:55;;;;;;;6.25;2.80;;;15.00;99.90;;;;;;4969415;28;20080;-59
2022/02/15 12:32:30;;;;;;;3.92;2.00;;;15.10;99.90;;;;;;4972989;28;20043;-60
2022/02/15 12:34:58;;;;;;;4.47;2.67;;;15.20;99.90;;;;;;4972465;28;20042;-60
2022/02/15 12:37:27;;;;;;;4.80;2.10;;;15.30;99.90;;;;;;4974571;28;20134;-59
2022/02/15 12:39:59;;;;;;;4.85;2.35;;;15.30;99.90;;;;;;4972699;28;20049;-59
2022/02/15 12:42:29;;;;;;;3.30;2.13;;;15.30;99.90;;;;;;4971792;28;20054;-60
2022/02/15 12:45:03;;;;;;;6.55;3.20;;;15.30;99.90;;;;;;4972776;28;20043;-60
2022/02/15 12:47:34;;;;;;;9.05;2.75;;;15.30;99.90;;;;;;4961368;28;20061;-60
2022/02/15 12:50:03;;;;;;;5.28;3.45;;;15.20;99.90;;;;;;4975078;28;20066;-60
2022/02/15 12:52:33;;;;;;;15.88;4.20;;;15.20;99.90;;;;;;4975139;28;20050;-60
2022/02/15 12:55:12;;;;;;;6.97;3.03;;;15.20;99.90;;;;;;4973887;28;20039;-60
2022/02/15 12:57:45;;;;;;;6.72;3.00;;;15.10;99.90;;;;;;4975213;28;20117;-60
2022/02/15 13:00:14;;;;;;;4.20;2.95;;;15.10;99.90;;;;;;4990163;28;20058;-60
2022/02/15 13:02:50;;;;;;;5.72;3.97;;;15.00;99.90;;;;;;4973694;28;20055;-60
2022/02/15 13:05:35;;;;;;;6.15;3.30;;;15.00;99.90;;;;;;4956935;28;20453;-60
2022/02/15 13:08:03;;;;;;;4.07;2.30;;;14.90;99.90;;;;;;4973992;28;20493;-61
2022/02/15 13:10:30;;;;;;;5.07;2.33;;;14.90;99.90;;;;;;4975042;28;20039;-61
2022/02/15 13:13:09;;;;;;;9.73;2.88;;;14.90;99.90;;;;;;4989890;28;20401;-61